KTEB/TEB METAR and TAF weather

Enter ICAO airport designator
Station Type Date Time Source
KTEB METAR 2020/07/06 02:51 UTC NOAA

KTEB 060251Z 00000KT 10SM CLR 27/19 A2993 RMK AO2 SLP133 T02720189 51012


Station Type Date Time Source
KTEB Decoded METAR 2020/07/06 02:51 UTC NOAA

TETERBORO AIRPORT, NJ, United States (KTEB) 40-52N 74-03W 7M
Jul 05, 2020 - 10:51 PM EDT / 2020.07.06 0251 UTC
Wind: Calm:0
Visibility: 10 mile(s):0
Sky conditions: clear
Temperature: 81.0 F (27.2 C)
Dew Point: 66.0 F (18.9 C)
Relative Humidity: 60%
Pressure (altimeter): 29.93 in. Hg (1013 hPa)
Pressure tendency: 0.04 inches (1.2 hPa) higher than three hours ago
ob: KTEB 060251Z 00000KT 10SM CLR 27/19 A2993 RMK AO2 SLP133 T02720189 51012
cycle: 3

Station Type Date Time Source
KTEB TAF 2020/07/06 03:36 UTC NOAA

TAF
AMD KTEB 060232Z 0603/0706 VRB04KT P6SM FEW080 SCT250
FM061600 30005KT P6SM FEW080 BKN250
FM061800 18007KT P6SM VCSH SCT050 BKN250 PROB30 0620/0624 4SM TSRA BKN040CB
FM070000 12005KT 6SM SHRA BKN050

Example: see airport list